createdAt,value
2018-04-09T00:01:32.750Z,16.37
2018-04-09T00:04:01.104Z,16.37
2018-04-09T00:06:29.431Z,16.33
2018-04-09T00:08:57.745Z,16.18
2018-04-09T00:11:26.265Z,16.07
2018-04-09T00:13:55.345Z,16.00
2018-04-09T00:16:23.920Z,15.94
2018-04-09T00:18:52.271Z,15.98
2018-04-09T00:21:20.576Z,16.07
2018-04-09T00:23:48.900Z,16.17
2018-04-09T00:26:17.988Z,16.37
2018-04-09T00:28:47.066Z,16.43
2018-04-09T00:31:15.406Z,16.50
2018-04-09T00:33:43.874Z,16.47
2018-04-09T00:36:12.208Z,16.46
2018-04-09T00:38:40.535Z,16.46
2018-04-09T00:41:08.910Z,16.45
2018-04-09T00:43:37.248Z,16.30
2018-04-09T00:46:05.564Z,16.33
2018-04-09T00:48:33.941Z,16.15
2018-04-09T00:51:02.293Z,16.18
2018-04-09T00:53:49.306Z,16.14
2018-04-09T00:56:18.404Z,15.93
2018-04-09T00:58:47.486Z,16.02
2018-04-09T01:01:15.855Z,16.01
2018-04-09T01:03:44.197Z,15.98
2018-04-09T01:06:12.547Z,15.96
2018-04-09T01:08:40.921Z,16.10
2018-04-09T01:11:10.006Z,16.07
2018-04-09T01:13:39.090Z,15.99
2018-04-09T01:16:07.990Z,16.00
2018-04-09T01:18:36.585Z,15.92
2018-04-09T01:21:05.679Z,15.81
2018-04-09T01:23:34.812Z,15.92
2018-04-09T01:26:03.178Z,15.84
2018-04-09T01:28:31.497Z,15.76
2018-04-09T01:30:59.862Z,15.63
2018-04-09T01:33:28.222Z,15.66
2018-04-09T01:35:56.568Z,15.62
2018-04-09T01:38:25.964Z,15.43
2018-04-09T01:40:54.317Z,15.50
2018-04-09T01:43:22.644Z,15.60
2018-04-09T01:45:51.007Z,15.68
2018-04-09T01:48:19.340Z,15.71
2018-04-09T01:50:47.669Z,15.76
2018-04-09T01:53:16.785Z,15.49
2018-04-09T01:55:45.115Z,15.56
2018-04-09T01:58:13.448Z,15.60
2018-04-09T02:00:42.050Z,15.58
2018-04-09T02:03:10.398Z,15.43
2018-04-09T02:05:38.918Z,15.47
2018-04-09T02:08:07.273Z,15.40
2018-04-09T02:10:35.616Z,15.34
2018-04-09T02:13:03.963Z,15.12
2018-04-09T02:15:32.344Z,15.17
2018-04-09T02:18:00.689Z,15.18
2018-04-09T02:20:29.025Z,15.21
2018-04-09T02:22:58.526Z,15.30
2018-04-09T02:25:27.657Z,15.32
2018-04-09T02:27:56.080Z,15.25
2018-04-09T02:30:24.472Z,15.22
2018-04-09T02:32:52.845Z,14.82
2018-04-09T02:35:21.161Z,14.89
2018-04-09T02:37:49.528Z,14.87
2018-04-09T02:40:18.629Z,14.81
2018-04-09T02:42:46.972Z,14.78
2018-04-09T02:45:15.588Z,14.74
2018-04-09T02:47:43.932Z,14.85
2018-04-09T02:50:13.025Z,14.80
2018-04-09T02:52:41.393Z,14.82
2018-04-09T02:55:09.815Z,14.74
2018-04-09T02:57:38.949Z,14.90
2018-04-09T03:00:07.294Z,14.88
2018-04-09T03:02:36.411Z,14.89
2018-04-09T03:05:04.757Z,14.87
2018-04-09T03:07:33.781Z,14.67
2018-04-09T03:10:02.155Z,14.59
2018-04-09T03:12:31.304Z,14.56
2018-04-09T03:14:59.659Z,14.56
2018-04-09T03:17:27.988Z,14.60
2018-04-09T03:19:56.328Z,14.46
2018-04-09T03:22:24.707Z,14.49
2018-04-09T03:24:53.049Z,14.56
2018-04-09T03:27:22.144Z,14.50
2018-04-09T03:29:51.537Z,14.48
2018-04-09T03:32:20.633Z,14.36
2018-04-09T03:34:48.949Z,14.29
2018-04-09T03:37:17.323Z,14.25
2018-04-09T03:39:45.652Z,14.08
2018-04-09T03:42:13.957Z,14.11
2018-04-09T03:44:43.078Z,14.15
2018-04-09T03:47:11.383Z,14.16
2018-04-09T03:49:39.720Z,14.09
2018-04-09T03:52:08.440Z,14.09
2018-04-09T03:54:36.784Z,14.09
2018-04-09T03:57:05.122Z,14.08
2018-04-09T03:59:33.472Z,14.03
2018-04-09T04:02:01.803Z,13.89
2018-04-09T04:04:30.111Z,13.92
2018-04-09T04:06:58.466Z,14.03
2018-04-09T04:09:26.795Z,13.98
2018-04-09T04:11:55.125Z,13.78
2018-04-09T04:14:23.747Z,13.63
2018-04-09T04:17:09.669Z,13.55
2018-04-09T04:19:55.625Z,13.54
2018-04-09T04:22:23.976Z,13.59
2018-04-09T04:24:52.319Z,13.51
2018-04-09T04:27:20.688Z,13.61
2018-04-09T04:29:49.036Z,13.55
2018-04-09T04:32:17.356Z,13.64
2018-04-09T04:34:45.900Z,13.65
2018-04-09T04:37:14.267Z,13.67
2018-04-09T04:39:42.599Z,13.64
2018-04-09T04:42:11.778Z,13.71
2018-04-09T04:44:40.130Z,13.89
2018-04-09T04:47:08.457Z,13.84
2018-04-09T04:49:37.596Z,13.91
2018-04-09T04:52:05.962Z,13.84
2018-04-09T04:54:34.331Z,13.85
2018-04-09T04:57:03.383Z,13.84
2018-04-09T04:59:31.730Z,13.88
2018-04-09T05:02:00.077Z,13.98
2018-04-09T05:04:29.208Z,13.96
2018-04-09T05:06:57.560Z,14.06
2018-04-09T05:09:25.961Z,13.88
2018-04-09T05:11:54.399Z,14.04
2018-04-09T05:14:22.748Z,13.96
2018-04-09T05:16:51.090Z,13.90
2018-04-09T05:19:19.755Z,14.07
2018-04-09T05:21:49.133Z,14.18
2018-04-09T05:24:17.481Z,14.32
2018-04-09T05:26:45.817Z,14.46
2018-04-09T05:29:14.159Z,14.52
2018-04-09T05:31:42.496Z,14.42
2018-04-09T05:34:10.886Z,14.22
2018-04-09T05:36:39.202Z,14.25
2018-04-09T05:39:07.558Z,14.21
2018-04-09T05:41:36.364Z,14.54
2018-04-09T05:44:04.714Z,14.82
2018-04-09T05:46:33.045Z,14.76
2018-04-09T05:49:01.391Z,14.67
2018-04-09T05:51:29.739Z,14.65
2018-04-09T05:53:58.053Z,14.77
2018-04-09T05:56:26.392Z,14.87
2018-04-09T05:58:54.717Z,14.97
2018-04-09T06:01:23.060Z,14.96
2018-04-09T06:03:51.652Z,15.03
2018-04-09T06:06:19.985Z,15.21
2018-04-09T06:08:49.068Z,15.27
2018-04-09T06:11:18.188Z,15.38
2018-04-09T06:13:47.262Z,15.54
2018-04-09T06:16:15.688Z,15.80
2018-04-09T06:18:44.033Z,15.94
2018-04-09T06:21:13.171Z,16.17
2018-04-09T06:23:41.608Z,16.29
2018-04-09T06:26:10.386Z,16.38
2018-04-09T06:28:38.706Z,16.27
2018-04-09T06:31:07.062Z,16.08
2018-04-09T06:33:36.192Z,16.20
2018-04-09T06:36:04.578Z,16.35
2018-04-09T06:38:32.953Z,16.50
2018-04-09T06:41:01.328Z,16.72
2018-04-09T06:43:29.686Z,16.61
2018-04-09T06:45:58.005Z,16.75
2018-04-09T06:48:26.481Z,16.69
2018-04-09T06:50:54.817Z,16.94
2018-04-09T06:53:23.132Z,16.75
2018-04-09T06:55:51.503Z,17.06
2018-04-09T06:58:19.845Z,16.98
2018-04-09T07:00:48.196Z,17.07
2018-04-09T07:03:16.549Z,17.19
2018-04-09T07:05:44.897Z,17.44
2018-04-09T07:08:13.241Z,17.27
2018-04-09T07:10:41.692Z,17.56
2018-04-09T07:13:10.013Z,17.69
2018-04-09T07:15:38.348Z,17.85
2018-04-09T07:18:06.702Z,17.81
2018-04-09T07:20:35.040Z,18.05
2018-04-09T07:23:04.195Z,17.93
2018-04-09T07:25:32.569Z,17.75
2018-04-09T07:28:00.893Z,18.10
2018-04-09T07:30:29.207Z,18.05
2018-04-09T07:32:58.049Z,17.73
2018-04-09T07:35:26.385Z,17.81
2018-04-09T07:37:54.870Z,17.65
2018-04-09T07:40:23.217Z,17.79
2018-04-09T07:42:51.581Z,18.08
2018-04-09T07:45:19.922Z,18.57
2018-04-09T07:47:48.328Z,18.86
2018-04-09T07:50:16.804Z,19.32
2018-04-09T07:52:45.143Z,19.73
2018-04-09T07:55:13.984Z,19.45
2018-04-09T07:57:42.343Z,19.37
2018-04-09T08:00:10.711Z,20.28
2018-04-09T08:02:39.082Z,21.13
2018-04-09T08:05:07.423Z,22.19
2018-04-09T08:07:35.753Z,22.83
2018-04-09T08:10:04.148Z,23.20
2018-04-09T08:12:32.464Z,23.88
2018-04-09T08:15:00.783Z,24.91
2018-04-09T08:17:29.418Z,25.33
2018-04-09T08:19:58.523Z,25.53
2018-04-09T08:22:26.845Z,25.60
2018-04-09T08:24:55.210Z,25.80
2018-04-09T08:27:23.542Z,26.53
2018-04-09T08:29:51.893Z,27.41
2018-04-09T08:32:21.004Z,27.57
2018-04-09T08:34:49.446Z,26.11
2018-04-09T08:37:17.836Z,26.54
2018-04-09T08:39:46.238Z,27.37
2018-04-09T08:42:14.541Z,28.29
2018-04-09T08:44:43.644Z,28.91
2018-04-09T08:47:12.805Z,29.73
2018-04-09T08:49:41.171Z,30.49
2018-04-09T08:52:09.494Z,30.43
2018-04-09T08:54:38.647Z,31.33
2018-04-09T08:57:06.991Z,30.88
2018-04-09T08:59:35.374Z,31.20
2018-04-09T09:02:04.348Z,30.12
2018-04-09T09:04:33.455Z,28.99
2018-04-09T09:07:01.800Z,31.25
2018-04-09T09:09:30.156Z,31.62
2018-04-09T09:11:58.516Z,32.26
2018-04-09T09:14:26.852Z,33.15
2018-04-09T09:16:55.977Z,31.95
2018-04-09T09:19:24.287Z,30.82
2018-04-09T09:21:52.618Z,32.37
2018-04-09T09:24:21.308Z,32.37
2018-04-09T09:26:49.918Z,33.63
2018-04-09T09:29:18.300Z,34.29
2018-04-09T09:31:46.666Z,35.38
2018-04-09T09:34:15.050Z,34.71
2018-04-09T09:36:43.376Z,35.22
2018-04-09T09:39:11.746Z,36.13
2018-04-09T09:41:40.100Z,35.81
2018-04-09T09:44:09.366Z,35.28
2018-04-09T09:46:37.819Z,34.16
2018-04-09T09:49:06.179Z,33.43
2018-04-09T09:51:34.511Z,34.49
2018-04-09T09:54:02.877Z,36.16
2018-04-09T09:56:31.203Z,33.66
2018-04-09T09:58:59.540Z,33.24
2018-04-09T10:01:28.668Z,33.87
2018-04-09T10:03:56.992Z,35.00
2018-04-09T10:06:26.255Z,35.85
2018-04-09T10:08:54.978Z,36.00
2018-04-09T10:11:23.319Z,34.78
2018-04-09T10:13:51.645Z,34.47
2018-04-09T10:16:20.790Z,36.06
2018-04-09T10:18:49.143Z,36.07
2018-04-09T10:21:17.471Z,36.14
2018-04-09T10:23:45.840Z,36.71
2018-04-09T10:26:14.159Z,36.66
2018-04-09T10:28:43.771Z,37.32
2018-04-09T10:31:13.351Z,38.74
2018-04-09T10:33:41.687Z,38.64
2018-04-09T10:36:10.033Z,37.88
2018-04-09T10:38:39.155Z,37.13
2018-04-09T10:41:07.502Z,37.89
2018-04-09T10:43:36.597Z,38.88
2018-04-09T10:46:04.979Z,37.65
2018-04-09T10:48:34.113Z,37.22
2018-04-09T10:51:02.495Z,36.28
2018-04-09T10:53:31.207Z,38.20
2018-04-09T10:55:59.565Z,38.74
2018-04-09T10:58:27.989Z,39.17
2018-04-09T11:00:56.352Z,37.96
2018-04-09T11:03:24.674Z,36.31
2018-04-09T11:05:53.053Z,35.54
2018-04-09T11:08:21.414Z,33.87
2018-04-09T11:10:49.745Z,33.33
2018-04-09T11:13:18.071Z,34.46
2018-04-09T11:15:47.237Z,36.05
2018-04-09T11:18:15.569Z,37.28
2018-04-09T11:20:43.916Z,36.97
2018-04-09T11:23:12.275Z,36.71
2018-04-09T11:25:40.610Z,36.48
2018-04-09T11:28:09.803Z,34.11
2018-04-09T11:30:38.168Z,33.01
2018-04-09T11:33:06.522Z,32.39
2018-04-09T11:35:34.867Z,33.00
2018-04-09T11:38:03.262Z,35.13
2018-04-09T11:40:31.586Z,35.97
2018-04-09T11:43:00.682Z,34.55
2018-04-09T11:45:29.787Z,32.31
2018-04-09T11:47:58.877Z,32.46
2018-04-09T11:50:27.983Z,32.25
2018-04-09T11:52:57.115Z,32.02
2018-04-09T11:55:25.441Z,32.38
2018-04-09T12:00:22.139Z,33.87
2018-04-09T12:02:50.493Z,34.01
2018-04-09T12:05:18.797Z,35.17
2018-04-09T12:07:47.125Z,33.81
2018-04-09T12:10:15.463Z,34.94
2018-04-09T12:12:43.796Z,36.27
2018-04-09T12:15:12.917Z,36.46
2018-04-09T12:17:41.262Z,36.06
2018-04-09T12:20:10.359Z,36.77
2018-04-09T12:22:39.852Z,37.03
2018-04-09T12:25:08.175Z,36.17
2018-04-09T12:27:37.246Z,35.81
2018-04-09T12:30:06.359Z,35.99
2018-04-09T12:32:35.458Z,35.77
2018-04-09T12:35:03.793Z,34.18
2018-04-09T12:37:32.173Z,33.75
2018-04-09T12:40:00.579Z,32.67
2018-04-09T12:42:28.916Z,31.52
2018-04-09T12:44:57.448Z,31.32
2018-04-09T12:47:26.542Z,30.57
2018-04-09T12:49:55.630Z,31.30
2018-04-09T12:52:24.748Z,31.18
2018-04-09T12:54:53.071Z,30.20
2018-04-09T12:57:21.400Z,29.54
2018-04-09T12:59:49.756Z,29.35
2018-04-09T13:02:18.857Z,29.72
2018-04-09T13:04:47.981Z,29.06
2018-04-09T13:07:16.751Z,29.54
2018-04-09T13:09:45.077Z,29.46
2018-04-09T13:12:13.447Z,28.71
2018-04-09T13:14:41.801Z,29.01
2018-04-09T13:17:10.160Z,28.59
2018-04-09T13:19:39.261Z,28.64
2018-04-09T13:22:08.360Z,28.78
2018-04-09T13:24:37.458Z,28.75
2018-04-09T13:27:05.941Z,28.65
2018-04-09T13:29:34.554Z,28.55
2018-04-09T13:32:02.895Z,28.63
2018-04-09T13:34:32.044Z,28.59
2018-04-09T13:37:00.414Z,28.72
2018-04-09T13:39:28.745Z,29.07
2018-04-09T13:41:57.863Z,29.49
2018-04-09T13:44:26.304Z,29.55
2018-04-09T13:46:55.430Z,29.78
2018-04-09T13:49:23.768Z,30.09
2018-04-09T13:51:52.477Z,30.11
2018-04-09T13:54:21.561Z,29.35
2018-04-09T13:56:49.938Z,28.71
2018-04-09T13:59:19.070Z,28.21
2018-04-09T14:01:48.193Z,28.48
2018-04-09T14:04:16.528Z,28.56
2018-04-09T14:06:44.957Z,28.77
2018-04-09T14:09:13.323Z,28.73
2018-04-09T14:11:41.674Z,28.65
2018-04-09T14:14:11.057Z,28.48
2018-04-09T14:16:39.420Z,28.36
2018-04-09T14:19:07.749Z,28.51
2018-04-09T14:21:36.092Z,28.67
2018-04-09T14:24:04.422Z,28.47
2018-04-09T14:26:32.755Z,28.29
2018-04-09T14:29:01.901Z,28.10
2018-04-09T14:31:30.283Z,28.03
2018-04-09T14:33:58.605Z,28.17
2018-04-09T14:36:27.033Z,27.83
2018-04-09T14:38:55.375Z,27.81
2018-04-09T14:41:24.490Z,27.66
2018-04-09T14:43:53.663Z,27.65
2018-04-09T14:46:22.027Z,27.54
2018-04-09T14:48:51.178Z,27.50
2018-04-09T14:51:19.603Z,27.79
2018-04-09T14:53:47.951Z,27.71
2018-04-09T14:56:16.262Z,27.77
2018-04-09T14:58:44.708Z,27.89
2018-04-09T15:01:13.025Z,27.78
2018-04-09T15:03:41.353Z,27.84
2018-04-09T15:06:09.736Z,27.72
2018-04-09T15:08:38.080Z,27.69
2018-04-09T15:11:06.443Z,27.76
2018-04-09T15:13:34.807Z,27.58
2018-04-09T15:16:03.169Z,27.48
2018-04-09T15:18:31.514Z,27.33
2018-04-09T15:21:00.268Z,26.93
2018-04-09T15:23:28.631Z,26.62
2018-04-09T15:25:56.968Z,26.43
2018-04-09T15:28:26.140Z,26.41
2018-04-09T15:30:54.718Z,26.27
2018-04-09T15:33:23.844Z,26.19
2018-04-09T15:35:52.312Z,25.92
2018-04-09T15:38:20.682Z,25.93
2018-04-09T15:40:49.788Z,25.88
2018-04-09T15:43:18.208Z,25.52
2018-04-09T15:45:46.544Z,25.56
2018-04-09T15:48:15.623Z,25.71
2018-04-09T15:50:43.983Z,25.59
2018-04-09T15:53:12.322Z,25.77
2018-04-09T15:55:40.631Z,25.64
2018-04-09T15:58:09.033Z,25.40
2018-04-09T16:00:38.264Z,25.42
2018-04-09T16:03:06.587Z,25.42
2018-04-09T16:05:35.409Z,25.48
2018-04-09T16:08:03.758Z,25.45
2018-04-09T16:10:32.092Z,25.62
2018-04-09T16:13:00.470Z,25.46
2018-04-09T16:15:28.827Z,25.20
2018-04-09T16:18:05.760Z,25.24
2018-04-09T16:20:34.084Z,25.13
2018-04-09T16:23:02.425Z,25.12
2018-04-09T16:25:30.835Z,24.90
2018-04-09T16:27:59.212Z,25.03
2018-04-09T16:30:28.303Z,24.83
2018-04-09T16:32:56.766Z,24.67
2018-04-09T16:35:25.120Z,24.43
2018-04-09T16:37:53.495Z,24.59
2018-04-09T16:40:21.901Z,24.41
2018-04-09T16:42:50.228Z,24.50
2018-04-09T16:45:19.340Z,24.47
2018-04-09T16:47:47.894Z,24.35
2018-04-09T16:50:16.990Z,24.23
2018-04-09T16:52:46.230Z,24.19
2018-04-09T16:55:14.595Z,24.24
2018-04-09T16:57:43.189Z,24.43
2018-04-09T17:00:11.496Z,24.37
2018-04-09T17:02:39.843Z,24.02
2018-04-09T17:05:08.164Z,23.74
2018-04-09T17:07:36.469Z,23.74
2018-04-09T17:10:05.781Z,23.67
2018-04-09T17:12:34.136Z,23.48
2018-04-09T17:15:02.520Z,23.42
2018-04-09T17:17:30.874Z,23.39
2018-04-09T17:19:59.237Z,23.14
2018-04-09T17:22:27.568Z,23.30
2018-04-09T17:24:56.698Z,23.48
2018-04-09T17:27:25.017Z,23.49
2018-04-09T17:29:53.393Z,23.58
2018-04-09T17:32:22.320Z,23.58
2018-04-09T17:34:51.000Z,23.46
2018-04-09T17:37:19.351Z,23.39
2018-04-09T17:39:47.710Z,23.39
2018-04-09T17:42:16.048Z,23.42
2018-04-09T17:44:44.365Z,23.18
2018-04-09T17:47:12.758Z,23.32
2018-04-09T17:49:41.094Z,23.38
2018-04-09T17:52:09.423Z,23.51
2018-04-09T17:54:38.092Z,23.44
2018-04-09T17:57:06.448Z,23.50
2018-04-09T17:59:34.796Z,23.40
2018-04-09T18:02:03.182Z,23.44
2018-04-09T18:04:32.263Z,23.36
2018-04-09T18:07:01.386Z,23.15
2018-04-09T18:09:29.732Z,23.11
2018-04-09T18:11:58.062Z,23.14
2018-04-09T18:14:26.415Z,23.04
2018-04-09T18:16:55.256Z,23.09
2018-04-09T18:19:23.616Z,23.06
2018-04-09T18:21:51.966Z,23.07
2018-04-09T18:24:20.336Z,23.16
2018-04-09T18:26:49.518Z,23.08
2018-04-09T18:29:17.901Z,22.96
2018-04-09T18:31:46.375Z,22.91
2018-04-09T18:34:15.515Z,22.91
2018-04-09T18:36:43.950Z,22.83
2018-04-09T18:39:13.192Z,22.78
2018-04-09T18:41:41.572Z,22.77
2018-04-09T18:44:09.969Z,22.65
2018-04-09T18:46:38.348Z,22.66
2018-04-09T18:49:06.734Z,22.46
2018-04-09T18:51:35.948Z,22.40
2018-04-09T18:54:04.334Z,22.22
2018-04-09T18:56:32.725Z,22.33
2018-04-09T18:59:01.101Z,22.30
2018-04-09T19:01:29.581Z,22.13
2018-04-09T19:03:58.699Z,22.16
2018-04-09T19:06:27.831Z,22.20
2018-04-09T19:08:56.186Z,22.02
2018-04-09T19:11:24.530Z,22.09
2018-04-09T19:13:52.874Z,21.97
2018-04-09T19:16:21.289Z,21.94
2018-04-09T19:18:49.641Z,21.86
2018-04-09T19:21:18.017Z,21.84
2018-04-09T19:23:46.508Z,21.68
2018-04-09T19:26:14.850Z,21.30
2018-04-09T19:28:43.225Z,21.31
2018-04-09T19:31:11.614Z,21.11
2018-04-09T19:33:39.971Z,20.99
2018-04-09T19:36:14.091Z,20.72
2018-04-09T19:38:47.843Z,20.75
2018-04-09T19:41:16.317Z,20.43
2018-04-09T19:43:44.664Z,20.51
2018-04-09T19:46:13.018Z,20.42
2018-04-09T19:48:41.420Z,20.30
2018-04-09T19:51:09.876Z,20.15
2018-04-09T19:53:38.970Z,19.97
2018-04-09T19:56:08.096Z,19.94
2018-04-09T19:58:36.428Z,20.10
2018-04-09T20:01:04.768Z,20.06
2018-04-09T20:03:33.443Z,19.95
2018-04-09T20:06:01.846Z,19.94
2018-04-09T20:08:30.237Z,19.97
2018-04-09T20:10:58.667Z,19.74
2018-04-09T20:13:27.011Z,19.78
2018-04-09T20:15:55.374Z,19.78
2018-04-09T20:18:23.728Z,19.72
2018-04-09T20:20:52.059Z,19.62
2018-04-09T20:23:20.439Z,19.78
2018-04-09T20:25:49.256Z,19.57
2018-04-09T20:28:17.627Z,19.45
2018-04-09T20:30:46.723Z,19.27
2018-04-09T20:33:15.067Z,19.24
2018-04-09T20:35:43.403Z,19.33
2018-04-09T20:38:12.020Z,19.17
2018-04-09T20:40:40.402Z,19.24
2018-04-09T20:43:08.771Z,19.20
2018-04-09T20:45:37.090Z,19.10
2018-04-09T20:48:06.443Z,19.16
2018-04-09T20:50:35.238Z,19.20
2018-04-09T20:53:03.595Z,19.07
2018-04-09T20:55:31.982Z,19.10
2018-04-09T20:58:00.317Z,19.12
2018-04-09T21:00:29.438Z,19.18
2018-04-09T21:02:57.799Z,19.05
2018-04-09T21:05:26.135Z,18.97
2018-04-09T21:07:54.479Z,19.03
2018-04-09T21:10:23.127Z,18.88
2018-04-09T21:12:51.469Z,18.74
2018-04-09T21:15:19.881Z,18.82
2018-04-09T21:17:48.258Z,18.80
2018-04-09T21:20:16.606Z,18.93
2018-04-09T21:22:45.746Z,18.96
2018-04-09T21:25:14.904Z,18.89
2018-04-09T21:27:43.247Z,18.80
2018-04-09T21:30:11.606Z,18.93
2018-04-09T21:32:40.203Z,18.64
2018-04-09T21:35:09.335Z,18.75
2018-04-09T21:37:37.844Z,18.68
2018-04-09T21:40:06.638Z,18.73
2018-04-09T21:42:35.024Z,18.60
2018-04-09T21:45:03.404Z,18.75
2018-04-09T21:47:31.800Z,18.74
2018-04-09T21:50:00.901Z,18.65
2018-04-09T21:52:30.040Z,18.63
2018-04-09T21:54:58.589Z,18.60
2018-04-09T21:57:26.921Z,18.44
2018-04-09T21:59:55.250Z,18.44
2018-04-09T22:02:23.636Z,18.34
2018-04-09T22:04:51.970Z,18.51
2018-04-09T22:07:20.378Z,18.39
2018-04-09T22:09:48.771Z,18.31
2018-04-09T22:12:17.883Z,18.40
2018-04-09T22:14:46.367Z,18.14
2018-04-09T22:17:14.807Z,18.14
2018-04-09T22:19:43.952Z,18.39
2018-04-09T22:22:12.312Z,18.18
2018-04-09T22:24:40.692Z,18.35
2018-04-09T22:27:09.921Z,18.18
2018-04-09T22:29:38.298Z,18.38
2018-04-09T22:32:07.479Z,18.23
2018-04-09T22:34:35.838Z,18.24
2018-04-09T22:37:04.173Z,18.26
2018-04-09T22:39:32.619Z,18.36
2018-04-09T22:42:00.976Z,18.43
2018-04-09T22:44:29.355Z,18.38
2018-04-09T22:46:58.497Z,18.37
2018-04-09T22:49:26.887Z,18.50
2018-04-09T22:51:56.064Z,18.53
2018-04-09T22:54:24.469Z,18.38
2018-04-09T22:56:52.855Z,18.34
2018-04-09T22:59:21.189Z,18.40
2018-04-09T23:01:49.883Z,18.53
2018-04-09T23:04:18.195Z,18.52
2018-04-09T23:06:46.527Z,18.51
2018-04-09T23:09:14.936Z,18.65
2018-04-09T23:11:43.269Z,18.56
2018-04-09T23:14:12.422Z,18.60
2018-04-09T23:16:40.769Z,18.65
2018-04-09T23:19:09.076Z,18.57
2018-04-09T23:21:37.435Z,18.38
2018-04-09T23:24:05.869Z,18.33
2018-04-09T23:26:35.236Z,18.47
2018-04-09T23:29:03.563Z,18.44
2018-04-09T23:31:31.927Z,18.45
2018-04-09T23:34:01.058Z,18.46
2018-04-09T23:36:29.391Z,18.40
2018-04-09T23:38:57.769Z,18.45
2018-04-09T23:41:26.144Z,18.41
2018-04-09T23:43:55.245Z,18.22
2018-04-09T23:46:23.691Z,18.39
2018-04-09T23:48:51.994Z,18.43
2018-04-09T23:51:20.324Z,18.35
2018-04-09T23:53:48.698Z,18.44
2018-04-09T23:56:17.064Z,18.28
2018-04-09T23:58:45.402Z,18.17
